Latest  Newer  Older  Last 2 hours slideshow  Last 24 hours slideshow  Refresh every 5 minutes 
Current image  Latest image  Rain/snow radar  Cloud coverage sat images 

All time is UTC (add 2 hours to UTC in wintertime, 3 hours to UTC in DST for Latvia local time)

2020/04/02 21:20 EVRA 022120Z 21019G31KT 9999 FEW042 07/M01 Q0991 NOSIG
2020/04/02 21:20 EVLA 022120Z AUTO 22027KT 9999 FEW038/// BKN045/// OVC052/// 07/02 Q0991
2020/04/02 21:20 EVVA 022120Z AUTO 22030G44KT 9999 OVC026 07/03 Q0987
2020/04/02 21:20 EYKA 022120Z 21011KT CAVOK 06/M03 Q1000
2020/04/02 21:20 EYPA 022120Z AUTO 21015G25KT 190V260 9999 FEW044/// BKN051/// 06/02 Q0995
2020/04/02 21:20 EYSA 022120Z 20017KT CAVOK 06/M00 Q0996 BLU NOSIG
2020/04/02 21:20 EYVI 022120Z 21013G23KT CAVOK 05/M04 Q1001 NOSIG

2020/04/02 21:21 EEKE 022121Z AUTO 24017G30KT 200V280 9999NDV -RA OVC008 02/02 Q0984
2020/04/02 10:50 EEPU 021050Z 22019KT 9999 BKN018 08/04 Q0992
2020/04/02 21:20 EETN 022120Z 24020G31KT 9000 -SHRASN VCTS SCT012 SCT019CB OVC025 02/01 Q0980 RESHRA RESHGS R08/09//95 NOSIG
2020/04/02 20:50 EETU 022050Z AUTO 21021KT 9999 OVC055/// 06/M01 Q0987
   RIGA AIRPORT     EVRA               56 55N  023 58E   10   X     T          6 LV
   LIEPAJA INTL     EVLA        26406  56 31N  021 06E    4   X                8 LV
   VENTPILS         EVVA               57 21N  021 33E    6   X                8 LV
   KAUNAS           EYKA               54 54N  023 55E   77   X     T          6 LT
   PALANGA INTL     EYPA               55 55N  021 03E   10   X                6 LT
   SIAULIAI INTL    EYSA               55 54N  023 24E  135   X     T          6 LT
   VILNIUS INTL     EYVI        26730  54 38N  025 17E  197   X     T          6 LT
   KARDLA           EEKA        26116  58 59N  022 50E    4   X                8 EE
   KURESSAARE       EEKE               58 14N  022 31E    4   X                8 EE
   PARNU            EEPU               58 25N  024 28E   14   X                8 EE
   TALLINN          EETN        26038  59 24N  024 49E   40   X     T          8 EE
   TARTU            EETU               58 19N  026 41E   67   X                8 EE